createdAt,value
2019-05-25T00:01:56.989Z,77.90
2019-05-25T00:04:27.619Z,77.70
2019-05-25T00:06:58.259Z,77.50
2019-05-25T00:09:29.046Z,77.50
2019-05-25T00:11:59.595Z,77.20
2019-05-25T00:14:30.144Z,75.30
2019-05-25T00:17:00.694Z,75.00
2019-05-25T00:19:31.378Z,74.70
2019-05-25T00:22:01.928Z,74.60
2019-05-25T00:24:32.576Z,75.00
2019-05-25T00:27:03.404Z,74.90
2019-05-25T00:29:34.097Z,74.60
2019-05-25T00:32:04.794Z,74.80
2019-05-25T00:34:35.603Z,74.80
2019-05-25T00:37:06.662Z,74.90
2019-05-25T00:39:37.317Z,75.10
2019-05-25T00:42:07.929Z,75.40
2019-05-25T00:44:38.522Z,75.90
2019-05-25T00:47:09.084Z,77.10
2019-05-25T00:49:39.676Z,79.20
2019-05-25T00:52:10.388Z,80.10
2019-05-25T00:54:41.034Z,81.20
2019-05-25T00:57:11.737Z,82.20
2019-05-25T00:59:42.301Z,83.20
2019-05-25T01:02:12.993Z,83.70
2019-05-25T01:04:43.628Z,84.40
2019-05-25T01:07:14.242Z,85.50
2019-05-25T01:09:44.885Z,85.80
2019-05-25T01:12:15.564Z,86.80
2019-05-25T01:14:46.209Z,87.70
2019-05-25T01:17:16.887Z,88.30
2019-05-25T01:19:48.607Z,89.10
2019-05-25T01:22:20.812Z,89.60
2019-05-25T01:24:51.402Z,89.60
2019-05-25T01:27:22.105Z,89.70
2019-05-25T01:29:52.826Z,90.20
2019-05-25T01:32:23.363Z,91.50
2019-05-25T01:34:54.025Z,92.40
2019-05-25T01:37:24.948Z,92.30
2019-05-25T01:39:55.950Z,92.50
2019-05-25T01:42:26.619Z,93.00
2019-05-25T01:44:57.533Z,93.20
2019-05-25T01:47:28.270Z,93.60
2019-05-25T01:49:58.810Z,93.80
2019-05-25T01:52:29.761Z,94.40
2019-05-25T01:55:00.811Z,94.20
2019-05-25T01:57:31.866Z,94.60
2019-05-25T02:00:02.802Z,94.50
2019-05-25T02:02:33.973Z,94.60
2019-05-25T02:05:05.071Z,94.40
2019-05-25T02:07:36.231Z,94.40
2019-05-25T02:10:07.490Z,93.90
2019-05-25T02:12:38.080Z,93.10
2019-05-25T02:15:09.362Z,91.80
2019-05-25T02:17:39.975Z,91.50
2019-05-25T02:20:11.346Z,90.40
2019-05-25T02:22:42.029Z,88.90
2019-05-25T02:25:18.345Z,86.90
2019-05-25T02:27:45.423Z,86.00
2019-05-25T02:30:16.520Z,84.80
2019-05-25T02:32:47.144Z,83.10
2019-05-25T02:35:28.301Z,83.10
2019-05-25T02:37:59.429Z,83.10
2019-05-25T02:40:29.949Z,83.10
2019-05-25T02:43:00.782Z,83.10
2019-05-25T02:45:31.296Z,83.10
2019-05-25T02:48:01.841Z,83.40
2019-05-25T02:50:32.536Z,84.00
2019-05-25T02:53:03.717Z,84.90
2019-05-25T02:55:35.342Z,85.30
2019-05-25T02:58:06.240Z,84.80
2019-05-25T03:00:36.925Z,84.80
2019-05-25T03:03:07.575Z,84.00
2019-05-25T03:05:38.120Z,84.60
2019-05-25T03:08:08.725Z,83.00
2019-05-25T03:10:40.512Z,82.90
2019-05-25T03:13:11.292Z,82.40
2019-05-25T03:15:42.505Z,82.40
2019-05-25T03:18:13.177Z,82.00
2019-05-25T03:20:43.724Z,81.60
2019-05-25T03:23:14.693Z,82.00
2019-05-25T03:25:49.542Z,82.10
2019-05-25T03:28:17.941Z,81.50
2019-05-25T03:30:48.553Z,80.90
2019-05-25T03:33:19.186Z,81.00
2019-05-25T03:35:49.712Z,81.20
2019-05-25T03:38:20.572Z,80.50
2019-05-25T03:40:51.200Z,80.30
2019-05-25T03:43:21.769Z,80.90
2019-05-25T03:45:52.406Z,80.50
2019-05-25T03:48:22.940Z,80.50
2019-05-25T03:50:53.486Z,80.60
2019-05-25T03:53:25.240Z,80.90
2019-05-25T03:56:05.272Z,80.50
2019-05-25T03:58:28.288Z,80.60
2019-05-25T04:00:58.873Z,80.80
2019-05-25T04:03:29.440Z,81.00
2019-05-25T04:06:00.059Z,81.10
2019-05-25T04:08:30.603Z,81.10
2019-05-25T04:11:01.182Z,81.20
2019-05-25T04:13:31.812Z,81.60
2019-05-25T04:16:02.696Z,81.90
2019-05-25T04:18:33.397Z,81.30
2019-05-25T04:21:03.992Z,81.30
2019-05-25T04:23:34.690Z,81.90
2019-05-25T04:26:19.615Z,83.30
2019-05-25T04:28:38.060Z,83.10
2019-05-25T04:31:08.702Z,83.10
2019-05-25T04:33:39.473Z,83.20
2019-05-25T04:36:10.403Z,83.20
2019-05-25T04:38:41.386Z,83.00
2019-05-25T04:41:12.020Z,83.10
2019-05-25T04:43:42.862Z,83.20
2019-05-25T04:46:13.891Z,82.50
2019-05-25T04:48:44.587Z,82.40
2019-05-25T04:51:15.192Z,82.50
2019-05-25T04:53:46.199Z,83.40
2019-05-25T04:56:16.837Z,85.00
2019-05-25T04:58:47.495Z,86.90
2019-05-25T05:01:21.827Z,88.50
2019-05-25T05:03:52.405Z,89.80
2019-05-25T05:06:23.424Z,90.40
2019-05-25T05:08:54.133Z,90.90
2019-05-25T05:11:24.709Z,90.90
2019-05-25T05:13:56.750Z,91.30
2019-05-25T05:16:29.916Z,91.10
2019-05-25T05:19:00.682Z,91.00
2019-05-25T05:21:31.312Z,91.40
2019-05-25T05:24:02.371Z,91.40
2019-05-25T05:26:33.517Z,91.40
2019-05-25T05:29:04.338Z,92.50
2019-05-25T05:31:34.985Z,92.10
2019-05-25T05:34:05.818Z,92.20
2019-05-25T05:36:39.102Z,92.30
2019-05-25T05:39:12.834Z,92.70
2019-05-25T05:41:45.483Z,92.90
2019-05-25T05:44:17.604Z,92.30
2019-05-25T05:46:49.593Z,92.50
2019-05-25T05:49:21.437Z,92.60
2019-05-25T05:51:52.925Z,92.80
2019-05-25T05:54:23.824Z,92.10
2019-05-25T05:57:10.723Z,91.80
2019-05-25T05:59:26.702Z,92.20
2019-05-25T06:01:57.365Z,91.00
2019-05-25T06:04:27.964Z,91.20
2019-05-25T06:06:58.630Z,91.30
2019-05-25T06:09:29.215Z,91.20
2019-05-25T06:11:59.893Z,90.50
2019-05-25T06:14:30.574Z,90.60
2019-05-25T06:17:01.262Z,91.00
2019-05-25T06:19:31.903Z,91.00
2019-05-25T06:22:02.735Z,90.90
2019-05-25T06:24:34.696Z,89.50
2019-05-25T06:27:05.385Z,90.00
2019-05-25T06:29:35.955Z,89.60
2019-05-25T06:32:06.625Z,89.50
2019-05-25T06:34:37.402Z,89.10
2019-05-25T06:37:08.029Z,88.50
2019-05-25T06:39:39.304Z,88.50
2019-05-25T06:42:09.893Z,88.20
2019-05-25T06:44:40.993Z,87.30
2019-05-25T06:47:11.597Z,88.00
2019-05-25T06:49:42.241Z,87.90
2019-05-25T06:52:12.853Z,86.10
2019-05-25T06:59:43.135Z,85.30
2019-05-25T07:02:13.788Z,82.00
2019-05-25T08:37:21.435Z,79.10
2019-05-25T08:52:21.537Z,67.50
2019-05-25T09:22:22.415Z,66.70
2019-05-25T09:24:53.059Z,69.80
2019-05-25T09:27:23.695Z,70.40
2019-05-25T09:29:54.739Z,67.60
2019-05-25T09:32:25.738Z,67.00
2019-05-25T09:34:56.409Z,66.10
2019-05-25T09:37:26.990Z,65.90
2019-05-25T09:54:59.290Z,66.20
2019-05-25T10:52:35.516Z,61.70
2019-05-25T11:07:36.677Z,53.40
2019-05-25T11:10:07.978Z,55.20
2019-05-25T14:30:28.771Z,53.70
2019-05-25T14:32:59.406Z,59.60
2019-05-25T14:37:59.908Z,59.50
2019-05-25T14:40:30.582Z,61.00
2019-05-25T14:45:35.492Z,59.90
2019-05-25T15:38:10.668Z,62.00
2019-05-25T15:45:41.620Z,63.60
2019-05-25T15:48:12.796Z,64.20
2019-05-25T15:50:43.340Z,64.50
2019-05-25T15:53:13.985Z,63.90
2019-05-25T15:55:44.713Z,64.00
2019-05-25T16:15:48.220Z,64.40
2019-05-25T16:18:18.888Z,64.70
2019-05-25T16:20:50.239Z,64.60
2019-05-25T16:23:21.674Z,64.50
2019-05-25T16:28:22.137Z,65.50
2019-05-25T16:30:52.813Z,67.00
2019-05-25T16:58:24.226Z,65.50
2019-05-25T17:00:54.872Z,68.00
2019-05-25T17:03:28.851Z,68.30
2019-05-25T17:05:57.733Z,68.30
2019-05-25T17:18:28.337Z,68.00
2019-05-25T17:20:59.017Z,69.30
2019-05-25T17:23:29.661Z,69.90
2019-05-25T17:26:00.480Z,69.20
2019-05-25T17:31:01.558Z,69.70
2019-05-25T17:33:45.510Z,69.50
2019-05-25T17:36:04.626Z,71.00
2019-05-25T17:38:35.656Z,72.70
2019-05-25T17:41:06.330Z,73.40
2019-05-25T17:51:09.925Z,73.10
2019-05-25T17:53:42.510Z,75.10
2019-05-25T17:56:15.044Z,75.30
2019-05-25T17:58:47.581Z,75.40
2019-05-25T18:01:18.250Z,76.40
2019-05-25T18:04:04.963Z,76.70
2019-05-25T18:06:21.224Z,76.90
2019-05-25T18:08:54.132Z,76.80
2019-05-25T18:11:24.911Z,77.20
2019-05-25T18:14:01.198Z,77.80
2019-05-25T18:16:31.803Z,77.70
2019-05-25T18:19:02.577Z,77.70
2019-05-25T18:21:33.724Z,77.00
2019-05-25T18:24:04.635Z,77.30
2019-05-25T18:26:35.902Z,76.90
2019-05-25T18:29:06.559Z,76.50
2019-05-25T18:31:37.123Z,76.10
2019-05-25T18:34:21.201Z,75.00
2019-05-25T18:36:40.739Z,75.40
2019-05-25T18:39:11.310Z,75.70
2019-05-25T18:41:42.317Z,76.50
2019-05-25T18:44:12.873Z,76.50
2019-05-25T18:49:14.966Z,77.10
2019-05-25T18:51:45.649Z,78.20
2019-05-25T18:54:16.389Z,77.80
2019-05-25T18:56:47.094Z,78.20
2019-05-25T18:59:20.159Z,78.40
2019-05-25T19:01:50.936Z,78.20
2019-05-25T19:04:41.236Z,79.00
2019-05-25T19:06:53.784Z,78.60
2019-05-25T19:09:24.455Z,79.10
2019-05-25T19:11:55.258Z,78.50
2019-05-25T19:14:26.250Z,78.70
2019-05-25T19:16:56.834Z,77.80
2019-05-25T19:19:30.231Z,78.80
2019-05-25T19:22:00.950Z,78.60
2019-05-25T19:24:33.891Z,77.80
2019-05-25T19:27:04.608Z,79.40
2019-05-25T19:29:36.094Z,75.50
2019-05-25T19:32:06.708Z,75.80
2019-05-25T19:34:37.418Z,77.10
2019-05-25T19:37:08.108Z,77.90
2019-05-25T19:39:40.215Z,78.70
2019-05-25T19:42:10.884Z,78.10
2019-05-25T19:44:44.344Z,78.40
2019-05-25T19:47:14.952Z,79.10
2019-05-25T19:49:45.525Z,78.50
2019-05-25T19:52:16.384Z,78.60
2019-05-25T19:54:47.464Z,78.40
2019-05-25T19:57:18.134Z,78.00
2019-05-25T19:59:48.877Z,77.40
2019-05-25T20:02:20.643Z,77.20
2019-05-25T20:04:51.392Z,77.30
2019-05-25T20:07:23.701Z,76.60
2019-05-25T20:09:55.640Z,76.00
2019-05-25T20:12:26.400Z,75.80
2019-05-25T20:14:57.173Z,75.20
2019-05-25T20:17:30.783Z,74.90
2019-05-25T20:20:01.541Z,75.40
2019-05-25T20:22:33.550Z,75.10
2019-05-25T20:25:04.340Z,74.60
2019-05-25T20:27:35.028Z,75.10
2019-05-25T20:30:06.339Z,75.00
2019-05-25T20:32:37.025Z,75.40
2019-05-25T20:35:08.285Z,75.20
2019-05-25T20:37:38.924Z,75.50
2019-05-25T20:40:10.509Z,75.90
2019-05-25T20:42:47.040Z,75.50
2019-05-25T20:45:18.353Z,75.70
2019-05-25T20:47:49.288Z,76.40
2019-05-25T20:50:20.620Z,77.10
2019-05-25T20:52:51.357Z,77.40
2019-05-25T20:55:21.965Z,78.00
2019-05-25T20:57:52.678Z,78.30
2019-05-25T21:00:24.236Z,78.20
2019-05-25T21:03:05.387Z,79.20
2019-05-25T21:05:27.732Z,78.60
2019-05-25T21:07:58.302Z,78.10
2019-05-25T21:10:29.122Z,79.00
2019-05-25T21:12:59.808Z,79.20
2019-05-25T21:15:30.505Z,79.60
2019-05-25T21:18:03.461Z,80.10
2019-05-25T21:20:34.203Z,80.20
2019-05-25T21:23:05.417Z,80.70
2019-05-25T21:25:36.063Z,80.50
2019-05-25T21:28:06.738Z,80.70
2019-05-25T21:30:39.006Z,81.50
2019-05-25T21:33:09.620Z,82.00
2019-05-25T21:35:41.385Z,82.40
2019-05-25T21:38:12.069Z,82.50
2019-05-25T21:40:42.739Z,82.60
2019-05-25T21:43:13.508Z,83.00
2019-05-25T21:45:44.149Z,83.80
2019-05-25T21:48:14.787Z,84.10
2019-05-25T21:50:45.386Z,84.30
2019-05-25T21:53:16.049Z,83.50
2019-05-25T21:55:46.757Z,84.40
2019-05-25T21:58:17.398Z,84.70
2019-05-25T22:00:48.722Z,85.00
2019-05-25T22:03:19.839Z,85.40
2019-05-25T22:05:52.254Z,85.90
2019-05-25T22:08:23.397Z,85.80
2019-05-25T22:10:55.298Z,86.50
2019-05-25T22:13:28.869Z,86.80
2019-05-25T22:15:59.635Z,86.80
2019-05-25T22:18:31.166Z,86.80
2019-05-25T22:21:02.103Z,86.80
2019-05-25T22:23:33.447Z,86.80
2019-05-25T22:26:05.044Z,87.10
2019-05-25T22:28:44.841Z,87.70
2019-05-25T22:31:08.805Z,87.80
2019-05-25T22:33:40.548Z,88.00
2019-05-25T22:36:11.913Z,88.60
2019-05-25T22:38:43.224Z,88.80
2019-05-25T22:41:14.230Z,89.00
2019-05-25T22:43:45.126Z,89.30
2019-05-25T22:46:15.996Z,89.50
2019-05-25T22:48:46.943Z,89.90
2019-05-25T22:51:17.817Z,89.60
2019-05-25T22:53:49.735Z,90.00
2019-05-25T22:56:20.712Z,90.00
2019-05-25T22:58:51.581Z,90.20
2019-05-25T23:01:22.976Z,90.20
2019-05-25T23:03:54.612Z,90.40
2019-05-25T23:06:25.526Z,90.50
2019-05-25T23:08:56.398Z,90.60
2019-05-25T23:11:27.602Z,90.80
2019-05-25T23:13:58.892Z,90.90
2019-05-25T23:16:29.820Z,91.30
2019-05-25T23:19:00.791Z,90.80
2019-05-25T23:21:31.839Z,90.70
2019-05-25T23:24:03.430Z,90.60
2019-05-25T23:26:34.060Z,90.60
2019-05-25T23:29:04.627Z,90.60
2019-05-25T23:31:35.185Z,90.80
2019-05-25T23:34:06.221Z,90.90
2019-05-25T23:36:37.168Z,91.20
2019-05-25T23:39:08.433Z,91.20
2019-05-25T23:41:39.557Z,91.20
2019-05-25T23:44:10.564Z,91.30
2019-05-25T23:46:41.345Z,91.30
2019-05-25T23:49:13.085Z,91.30
2019-05-25T23:51:43.687Z,91.20
2019-05-25T23:54:14.299Z,91.10
2019-05-25T23:56:45.314Z,91.30
2019-05-25T23:59:15.861Z,91.40
